createdAt,value
2022-12-25T00:01:48.342Z,27.40
2022-12-25T00:04:15.146Z,31.00
2022-12-25T00:06:42.133Z,25.00
2022-12-25T00:09:09.104Z,28.90
2022-12-25T00:11:35.932Z,33.90
2022-12-25T00:14:02.895Z,29.40
2022-12-25T00:16:29.771Z,27.00
2022-12-25T00:18:58.887Z,30.80
2022-12-25T00:21:25.657Z,30.20
2022-12-25T00:23:55.949Z,29.30
2022-12-25T00:26:23.373Z,19.20
2022-12-25T00:28:53.967Z,24.60
2022-12-25T00:31:21.472Z,21.00
2022-12-25T00:33:50.235Z,21.50
2022-12-25T00:36:19.560Z,23.60
2022-12-25T00:38:47.116Z,24.50
2022-12-25T00:41:16.807Z,24.80
2022-12-25T00:43:44.014Z,22.70
2022-12-25T00:46:12.806Z,26.60
2022-12-25T00:48:40.253Z,23.70
2022-12-25T00:51:11.022Z,25.40
2022-12-25T00:53:37.776Z,22.80
2022-12-25T00:56:07.811Z,26.50
2022-12-25T00:58:35.665Z,30.10
2022-12-25T01:01:06.819Z,29.50
2022-12-25T01:03:33.575Z,33.30
2022-12-25T01:06:03.923Z,32.30
2022-12-25T01:08:33.908Z,33.50
2022-12-25T01:11:06.088Z,36.90
2022-12-25T01:13:36.623Z,36.10
2022-12-25T01:16:07.905Z,39.10
2022-12-25T01:18:35.186Z,42.30
2022-12-25T01:21:11.002Z,39.60
2022-12-25T01:23:38.480Z,43.60
2022-12-25T01:26:07.456Z,41.30
2022-12-25T01:28:34.864Z,41.70
2022-12-25T01:31:02.204Z,42.00
2022-12-25T01:33:29.261Z,36.50
2022-12-25T01:35:55.973Z,36.40
2022-12-25T01:38:22.812Z,36.60
2022-12-25T01:40:49.743Z,35.90
2022-12-25T01:43:33.250Z,39.40
2022-12-25T01:46:00.365Z,36.30
2022-12-25T01:48:32.799Z,38.40
2022-12-25T01:51:06.110Z,41.50
2022-12-25T01:53:33.650Z,35.70
2022-12-25T01:56:05.948Z,34.80
2022-12-25T01:58:32.976Z,36.70
2022-12-25T02:00:59.771Z,33.60
2022-12-25T02:03:26.697Z,37.40
2022-12-25T02:05:54.522Z,40.90
2022-12-25T02:08:23.320Z,41.80
2022-12-25T02:10:50.069Z,40.20
2022-12-25T02:13:19.970Z,39.10
2022-12-25T02:15:51.108Z,35.60
2022-12-25T02:18:38.042Z,33.00
2022-12-25T02:21:21.388Z,29.60
2022-12-25T02:24:03.142Z,36.40
2022-12-25T02:27:00.592Z,32.90
2022-12-25T02:29:56.019Z,31.20
2022-12-25T02:32:31.215Z,34.40
2022-12-25T02:35:03.631Z,36.00
2022-12-25T02:37:31.840Z,33.50
2022-12-25T02:40:21.676Z,36.30
2022-12-25T02:43:08.190Z,33.80
2022-12-25T02:45:52.105Z,36.40
2022-12-25T02:48:37.629Z,30.40
2022-12-25T02:51:23.450Z,29.70
2022-12-25T02:54:09.196Z,30.90
2022-12-25T02:56:53.531Z,30.20
2022-12-25T02:59:37.072Z,28.00
2022-12-25T03:02:22.538Z,26.80
2022-12-25T03:05:08.165Z,32.40
2022-12-25T03:07:39.588Z,28.20
2022-12-25T03:10:28.208Z,30.50
2022-12-25T03:12:56.123Z,25.20
2022-12-25T03:15:39.333Z,25.40
2022-12-25T03:18:11.780Z,26.40
2022-12-25T03:20:54.268Z,23.60
2022-12-25T03:23:40.187Z,26.60
2022-12-25T03:26:23.164Z,28.10
2022-12-25T03:28:50.058Z,23.20
2022-12-25T03:31:35.547Z,27.40
2022-12-25T03:34:36.623Z,28.20
2022-12-25T03:37:23.687Z,34.20
2022-12-25T03:39:57.532Z,27.50
2022-12-25T03:42:47.653Z,26.00
2022-12-25T03:45:42.335Z,32.60
2022-12-25T03:48:26.698Z,30.00
2022-12-25T03:51:16.536Z,28.70
2022-12-25T03:54:03.475Z,28.40
2022-12-25T03:56:47.287Z,26.60
2022-12-25T03:59:29.743Z,24.20
2022-12-25T04:02:11.982Z,30.80
2022-12-25T04:04:54.189Z,29.80
2022-12-25T04:07:36.727Z,28.70
2022-12-25T04:10:19.321Z,27.50
2022-12-25T04:13:01.581Z,33.00
2022-12-25T04:15:43.956Z,25.10
2022-12-25T04:18:26.346Z,30.50
2022-12-25T04:21:08.564Z,29.50
2022-12-25T04:23:50.783Z,27.10
2022-12-25T04:26:33.293Z,28.90
2022-12-25T04:29:15.427Z,24.10
2022-12-25T04:31:57.872Z,28.80
2022-12-25T04:34:40.133Z,26.30
2022-12-25T04:37:06.849Z,31.00
2022-12-25T04:39:33.603Z,27.80
2022-12-25T04:42:01.113Z,28.30
2022-12-25T04:44:27.849Z,30.80
2022-12-25T04:46:54.748Z,25.10
2022-12-25T04:49:21.520Z,27.30
2022-12-25T04:51:48.333Z,26.10
2022-12-25T04:54:15.115Z,28.40
2022-12-25T04:56:45.856Z,25.60
2022-12-25T04:59:13.208Z,27.80
2022-12-25T05:01:40.179Z,30.30
2022-12-25T05:04:07.440Z,26.20
2022-12-25T05:06:34.208Z,25.20
2022-12-25T05:09:00.932Z,21.20
2022-12-25T05:11:27.761Z,22.90
2022-12-25T05:13:54.635Z,20.90
2022-12-25T05:16:21.522Z,24.30
2022-12-25T05:18:50.971Z,24.40
2022-12-25T05:21:18.768Z,26.80
2022-12-25T05:23:49.783Z,27.50
2022-12-25T05:26:19.574Z,27.90
2022-12-25T05:28:47.072Z,29.00
2022-12-25T05:31:14.503Z,28.80
2022-12-25T05:33:41.265Z,25.70
2022-12-25T05:36:10.436Z,23.80
2022-12-25T05:38:37.623Z,29.60
2022-12-25T05:41:04.790Z,22.20
2022-12-25T05:43:31.819Z,27.70
2022-12-25T05:46:03.510Z,28.50
2022-12-25T05:48:30.269Z,28.50
2022-12-25T05:50:56.956Z,22.50
2022-12-25T05:53:23.838Z,30.10
2022-12-25T05:55:50.640Z,28.20
2022-12-25T05:58:17.349Z,32.20
2022-12-25T06:00:44.858Z,25.20
2022-12-25T06:03:11.683Z,23.80
2022-12-25T06:05:39.777Z,25.20
2022-12-25T06:08:06.595Z,24.10
2022-12-25T06:10:33.331Z,20.30
2022-12-25T06:13:00.845Z,25.30
2022-12-25T06:15:27.758Z,15.90
2022-12-25T06:17:54.521Z,23.40
2022-12-25T06:20:21.447Z,22.80
2022-12-25T06:22:48.159Z,22.30
2022-12-25T06:25:15.162Z,23.60
2022-12-25T06:27:41.913Z,23.40
2022-12-25T06:30:09.323Z,25.00
2022-12-25T06:32:36.189Z,27.20
2022-12-25T06:35:03.307Z,25.60
2022-12-25T06:37:31.615Z,27.90
2022-12-25T06:39:58.522Z,24.00
2022-12-25T06:42:25.838Z,25.00
2022-12-25T06:44:53.315Z,27.30
2022-12-25T06:47:20.020Z,29.80
2022-12-25T06:49:46.848Z,28.60
2022-12-25T06:52:13.563Z,26.00
2022-12-25T06:54:40.273Z,25.30
2022-12-25T06:57:07.055Z,29.20
2022-12-25T06:59:33.748Z,27.50
2022-12-25T07:02:00.717Z,32.40
2022-12-25T07:04:40.655Z,35.60
2022-12-25T07:07:09.645Z,34.30
2022-12-25T07:09:39.179Z,28.00
2022-12-25T07:12:17.415Z,25.00
2022-12-25T07:14:45.485Z,22.40
2022-12-25T07:17:12.245Z,24.00
2022-12-25T07:19:44.733Z,22.00
2022-12-25T07:22:12.290Z,25.80
2022-12-25T07:24:39.200Z,27.70
2022-12-25T07:27:06.593Z,21.10
2022-12-25T07:29:33.305Z,22.40
2022-12-25T07:32:00.245Z,25.10
2022-12-25T07:34:27.030Z,32.00
2022-12-25T07:36:55.135Z,33.70
2022-12-25T07:39:22.072Z,32.80
2022-12-25T07:41:48.782Z,32.60
2022-12-25T07:44:16.065Z,29.30
2022-12-25T07:46:43.094Z,28.80
2022-12-25T07:49:11.109Z,34.20
2022-12-25T07:51:38.225Z,40.50
2022-12-25T07:54:05.085Z,32.70
2022-12-25T07:56:31.889Z,33.30
2022-12-25T07:58:58.679Z,37.70
2022-12-25T08:01:27.170Z,31.70
2022-12-25T08:03:57.374Z,27.40
2022-12-25T08:06:29.806Z,32.60
2022-12-25T08:09:01.820Z,29.40
2022-12-25T08:11:29.344Z,31.20
2022-12-25T08:13:56.031Z,32.70
2022-12-25T08:16:22.941Z,34.60
2022-12-25T08:18:49.840Z,26.50
2022-12-25T08:21:16.619Z,29.00
2022-12-25T08:23:45.629Z,32.30
2022-12-25T08:26:15.965Z,27.50
2022-12-25T08:28:42.841Z,27.90
2022-12-25T08:31:27.772Z,34.10
2022-12-25T08:33:57.241Z,28.80
2022-12-25T08:36:24.493Z,27.20
2022-12-25T08:38:53.480Z,27.10
2022-12-25T08:41:23.299Z,27.90
2022-12-25T08:43:50.039Z,31.90
2022-12-25T08:46:16.793Z,29.00
2022-12-25T08:48:45.913Z,30.40
2022-12-25T08:51:16.229Z,26.40
2022-12-25T08:53:44.734Z,25.10
2022-12-25T08:56:11.804Z,21.70
2022-12-25T08:58:38.872Z,22.00
2022-12-25T09:01:06.535Z,21.70
2022-12-25T09:03:33.877Z,22.50
2022-12-25T09:06:04.072Z,24.10
2022-12-25T09:08:31.093Z,17.40
2022-12-25T09:11:03.131Z,23.10
2022-12-25T09:13:30.220Z,17.70
2022-12-25T09:15:56.961Z,21.60
2022-12-25T09:18:23.783Z,18.00
2022-12-25T09:21:03.317Z,19.90
2022-12-25T09:23:30.912Z,19.60
2022-12-25T09:25:59.980Z,17.70
2022-12-25T09:28:26.894Z,19.40
2022-12-25T09:30:54.215Z,23.10
2022-12-25T09:33:22.204Z,18.70
2022-12-25T09:35:58.326Z,20.50
2022-12-25T09:38:25.836Z,17.30
2022-12-25T09:41:02.955Z,19.40
2022-12-25T09:43:33.999Z,17.60
2022-12-25T09:46:04.269Z,16.00
2022-12-25T09:48:35.572Z,19.40
2022-12-25T09:51:10.125Z,19.60
2022-12-25T09:53:40.463Z,19.40
2022-12-25T09:56:10.675Z,18.10
2022-12-25T09:58:37.480Z,17.50
2022-12-25T10:01:28.936Z,20.30
2022-12-25T10:04:26.956Z,15.90
2022-12-25T10:07:23.695Z,15.20
2022-12-25T10:10:05.774Z,15.90
2022-12-25T10:12:32.554Z,17.20
2022-12-25T10:14:59.345Z,20.80
2022-12-25T10:17:31.004Z,17.20
2022-12-25T10:20:13.228Z,14.00
2022-12-25T10:22:44.926Z,13.80
2022-12-25T10:25:17.843Z,14.30
2022-12-25T10:27:45.393Z,13.50
2022-12-25T10:30:18.564Z,12.80
2022-12-25T10:32:46.574Z,14.40
2022-12-25T10:35:15.422Z,15.50
2022-12-25T10:37:44.504Z,16.70
2022-12-25T10:40:27.438Z,17.30
2022-12-25T10:43:04.459Z,17.30
2022-12-25T10:45:31.371Z,14.70
2022-12-25T10:48:07.446Z,17.80
2022-12-25T10:50:42.560Z,14.80
2022-12-25T10:53:18.643Z,24.10
2022-12-25T10:56:02.254Z,18.50
2022-12-25T10:58:30.564Z,15.40
2022-12-25T11:01:03.017Z,20.30
2022-12-25T11:03:35.956Z,28.60
2022-12-25T11:06:03.465Z,24.80
2022-12-25T11:08:33.111Z,19.40
2022-12-25T11:11:06.396Z,19.70
2022-12-25T11:13:39.277Z,16.90
2022-12-25T11:16:10.643Z,18.90
2022-12-25T11:18:46.520Z,15.70
2022-12-25T11:21:19.015Z,15.50
2022-12-25T11:23:48.827Z,17.80
2022-12-25T11:26:17.835Z,17.60
2022-12-25T11:28:46.274Z,16.30
2022-12-25T11:31:15.944Z,13.20
2022-12-25T11:33:46.931Z,12.60
2022-12-25T11:36:21.613Z,16.00
2022-12-25T11:38:48.391Z,16.00
2022-12-25T11:41:20.755Z,13.80
2022-12-25T11:43:55.557Z,14.10
2022-12-25T11:49:25.900Z,13.80
2022-12-25T11:51:57.151Z,10.60
2022-12-25T11:54:32.453Z,16.70
2022-12-25T11:57:03.436Z,14.90
2022-12-25T11:59:38.633Z,13.60
2022-12-25T12:02:24.259Z,12.60
2022-12-25T12:05:06.660Z,13.00
2022-12-25T12:07:35.448Z,11.40
2022-12-25T12:10:16.675Z,12.10
2022-12-25T12:12:58.642Z,14.90
2022-12-25T12:15:33.557Z,12.40
2022-12-25T12:18:10.170Z,17.20
2022-12-25T12:20:37.475Z,13.00
2022-12-25T12:23:15.215Z,11.40
2022-12-25T12:25:45.458Z,14.90
2022-12-25T12:28:20.913Z,12.50
2022-12-25T12:30:58.671Z,11.40
2022-12-25T12:33:29.630Z,10.10
2022-12-25T12:35:57.092Z,13.90
2022-12-25T12:38:24.942Z,12.00
2022-12-25T12:40:51.650Z,12.50
2022-12-25T12:43:26.212Z,11.90
2022-12-25T12:46:00.999Z,12.60
2022-12-25T12:48:37.235Z,14.00
2022-12-25T12:51:07.367Z,14.20
2022-12-25T12:53:35.124Z,15.10
2022-12-25T12:56:11.976Z,16.20
2022-12-25T12:58:45.170Z,15.50
2022-12-25T13:01:21.466Z,10.30
2022-12-25T13:04:03.543Z,13.30
2022-12-25T13:06:41.487Z,13.80
2022-12-25T13:09:11.690Z,14.20
2022-12-25T13:11:41.629Z,14.10
2022-12-25T13:14:19.245Z,16.30
2022-12-25T13:16:48.951Z,13.10
2022-12-25T13:19:19.404Z,14.20
2022-12-25T13:22:03.354Z,15.40
2022-12-25T13:24:32.820Z,14.70
2022-12-25T13:27:00.715Z,12.30
2022-12-25T13:29:38.069Z,11.00
2022-12-25T13:32:07.493Z,11.60
2022-12-25T13:34:40.505Z,10.20
2022-12-25T13:37:10.196Z,13.00
2022-12-25T13:39:44.625Z,10.40
2022-12-25T13:42:16.818Z,9.60
2022-12-25T13:44:47.433Z,9.90
2022-12-25T13:47:19.667Z,10.50
2022-12-25T13:49:47.413Z,9.60
2022-12-25T13:52:18.872Z,7.60
2022-12-25T13:54:55.799Z,12.10
2022-12-25T13:57:28.121Z,12.70
2022-12-25T13:59:55.561Z,13.00
2022-12-25T14:02:28.833Z,12.80
2022-12-25T14:04:55.930Z,14.60
2022-12-25T14:07:24.984Z,10.60
2022-12-25T14:09:59.734Z,13.40
2022-12-25T14:12:29.188Z,12.40
2022-12-25T14:14:58.264Z,11.70
2022-12-25T14:17:25.928Z,14.00
2022-12-25T14:20:05.626Z,13.30
2022-12-25T14:22:36.036Z,14.40
2022-12-25T14:25:02.845Z,15.10
2022-12-25T14:27:31.015Z,13.40
2022-12-25T14:30:00.594Z,15.20
2022-12-25T14:32:31.892Z,15.10
2022-12-25T14:35:03.734Z,10.10
2022-12-25T14:37:32.872Z,14.20
2022-12-25T14:40:06.570Z,12.50
2022-12-25T14:42:35.263Z,16.70
2022-12-25T14:45:04.027Z,11.90
2022-12-25T14:47:32.528Z,15.90
2022-12-25T14:49:59.995Z,15.50
2022-12-25T14:52:30.562Z,14.00
2022-12-25T14:55:02.985Z,13.90
2022-12-25T14:57:33.899Z,19.50
2022-12-25T15:00:06.704Z,15.40
2022-12-25T15:02:40.831Z,11.40
2022-12-25T15:05:25.137Z,13.30
2022-12-25T15:08:04.468Z,20.20
2022-12-25T15:10:59.738Z,14.40
2022-12-25T15:13:18.918Z,16.80
2022-12-25T15:15:53.557Z,25.90
2022-12-25T15:18:24.559Z,20.70
2022-12-25T15:20:52.977Z,19.20
2022-12-25T15:23:20.899Z,16.20
2022-12-25T15:25:48.644Z,20.10
2022-12-25T15:28:15.499Z,21.60
2022-12-25T15:30:42.473Z,20.50
2022-12-25T15:33:14.484Z,22.90
2022-12-25T15:35:44.143Z,23.30
2022-12-25T15:38:12.336Z,16.90
2022-12-25T15:40:40.128Z,26.60
2022-12-25T15:43:14.531Z,28.60
2022-12-25T15:45:53.665Z,34.50
2022-12-25T15:48:20.448Z,33.20
2022-12-25T15:50:47.403Z,41.10
2022-12-25T15:53:14.229Z,26.10
2022-12-25T15:55:41.277Z,37.80
2022-12-25T15:58:13.176Z,36.30
2022-12-25T16:00:39.899Z,43.90
2022-12-25T16:03:06.799Z,38.00
2022-12-25T16:05:33.731Z,34.80
2022-12-25T16:08:00.504Z,32.20
2022-12-25T16:10:27.390Z,37.20
2022-12-25T16:12:54.134Z,29.90
2022-12-25T16:15:20.900Z,27.50
2022-12-25T16:17:47.698Z,33.80
2022-12-25T16:20:15.036Z,23.00
2022-12-25T16:22:41.766Z,36.50
2022-12-25T16:25:14.991Z,33.20
2022-12-25T16:27:41.806Z,28.80
2022-12-25T16:30:09.665Z,18.20
2022-12-25T16:32:36.554Z,47.60
2022-12-25T16:35:03.593Z,30.60
2022-12-25T16:37:30.567Z,61.00
2022-12-25T16:39:57.431Z,56.60
2022-12-25T16:42:24.274Z,52.10
2022-12-25T16:44:51.142Z,54.50
2022-12-25T16:47:17.931Z,57.30
2022-12-25T16:49:44.728Z,63.90
2022-12-25T16:52:11.528Z,58.30
2022-12-25T16:54:38.200Z,68.50
2022-12-25T16:57:04.966Z,82.00
2022-12-25T16:59:33.017Z,109.60
2022-12-25T17:01:59.818Z,111.30
2022-12-25T17:04:27.884Z,82.30
2022-12-25T17:06:54.640Z,84.30
2022-12-25T17:09:21.499Z,58.10
2022-12-25T17:11:48.301Z,68.50
2022-12-25T17:14:16.231Z,69.40
2022-12-25T17:16:43.039Z,54.10
2022-12-25T17:19:18.373Z,40.00
2022-12-25T17:21:45.841Z,34.90
2022-12-25T17:24:12.886Z,35.30
2022-12-25T17:26:42.092Z,37.60
2022-12-25T17:29:08.853Z,47.10
2022-12-25T17:31:36.118Z,43.00
2022-12-25T17:34:04.234Z,47.30
2022-12-25T17:36:31.906Z,46.80
2022-12-25T17:39:00.929Z,45.50
2022-12-25T17:41:28.023Z,47.00
2022-12-25T17:43:55.048Z,45.70
2022-12-25T17:46:24.984Z,61.40
2022-12-25T17:48:54.304Z,58.10
2022-12-25T17:51:23.377Z,63.10
2022-12-25T17:53:55.481Z,70.70
2022-12-25T17:56:39.297Z,76.40
2022-12-25T17:59:08.447Z,83.20
2022-12-25T18:01:53.039Z,85.70
2022-12-25T18:04:35.704Z,78.30
2022-12-25T18:07:03.424Z,74.90
2022-12-25T18:09:32.201Z,65.80
2022-12-25T18:12:00.011Z,63.20
2022-12-25T18:14:26.918Z,67.50
2022-12-25T18:16:53.943Z,69.50
2022-12-25T18:19:20.801Z,72.80
2022-12-25T18:21:47.688Z,74.10
2022-12-25T18:24:15.768Z,68.50
2022-12-25T18:26:42.583Z,71.90
2022-12-25T18:29:26.077Z,62.30
2022-12-25T18:31:52.869Z,65.90
2022-12-25T18:34:36.771Z,67.20
2022-12-25T18:37:03.782Z,63.90
2022-12-25T18:39:32.011Z,65.50
2022-12-25T18:42:14.984Z,50.40
2022-12-25T18:44:41.848Z,64.10
2022-12-25T18:47:08.620Z,58.20
2022-12-25T18:49:36.892Z,57.90
2022-12-25T18:52:48.824Z,60.70
2022-12-25T18:54:52.479Z,67.20
2022-12-25T18:57:19.530Z,67.30
2022-12-25T18:59:47.471Z,60.00
2022-12-25T19:02:15.359Z,61.80
2022-12-25T19:04:50.689Z,61.60
2022-12-25T19:07:17.451Z,50.60
2022-12-25T19:09:44.793Z,54.50
2022-12-25T19:12:27.254Z,60.90
2022-12-25T19:14:54.025Z,62.90
2022-12-25T19:17:22.552Z,62.20
2022-12-25T19:19:51.055Z,65.40
2022-12-25T19:22:17.792Z,78.50
2022-12-25T19:25:00.153Z,77.00
2022-12-25T19:27:27.212Z,84.40
2022-12-25T19:29:54.714Z,79.60
2022-12-25T19:32:24.236Z,87.20
2022-12-25T19:35:07.072Z,84.10
2022-12-25T19:37:34.824Z,76.70
2022-12-25T19:40:01.874Z,77.00
2022-12-25T19:42:28.630Z,78.20
2022-12-25T19:44:55.941Z,78.90
2022-12-25T19:47:22.830Z,77.40
2022-12-25T19:49:53.227Z,70.50
2022-12-25T19:52:20.596Z,52.80
2022-12-25T19:54:51.663Z,62.10
2022-12-25T19:57:18.699Z,51.60
2022-12-25T19:59:45.426Z,47.80
2022-12-25T20:02:12.653Z,52.00
2022-12-25T20:04:39.535Z,54.50
2022-12-25T20:07:06.470Z,51.90
2022-12-25T20:09:33.313Z,48.00
2022-12-25T20:12:00.110Z,48.60
2022-12-25T20:14:26.852Z,43.50
2022-12-25T20:16:53.969Z,51.50
2022-12-25T20:19:21.541Z,54.30
2022-12-25T20:21:48.530Z,165.80
2022-12-25T20:24:16.086Z,217.20
2022-12-25T20:26:46.442Z,122.30
2022-12-25T20:29:15.072Z,48.60
2022-12-25T20:31:42.134Z,50.10
2022-12-25T20:34:12.063Z,38.30
2022-12-25T20:36:39.278Z,45.40
2022-12-25T20:39:09.826Z,45.00
2022-12-25T20:41:38.049Z,41.00
2022-12-25T20:44:06.589Z,47.10
2022-12-25T20:46:33.666Z,46.80
2022-12-25T20:49:04.317Z,38.80
2022-12-25T20:51:31.064Z,43.00
2022-12-25T20:53:58.140Z,49.40
2022-12-25T20:56:26.433Z,42.30
2022-12-25T20:58:55.174Z,43.00
2022-12-25T21:01:22.588Z,45.70
2022-12-25T21:03:51.192Z,222.80
2022-12-25T21:06:18.027Z,40.70
2022-12-25T21:08:44.816Z,35.00
2022-12-25T21:11:13.088Z,43.00
2022-12-25T21:13:42.435Z,43.00
2022-12-25T21:16:13.899Z,37.70
2022-12-25T21:18:40.745Z,38.30
2022-12-25T21:21:10.570Z,39.00
2022-12-25T21:23:39.180Z,36.40
2022-12-25T21:26:19.470Z,45.70
2022-12-25T21:28:48.300Z,44.50
2022-12-25T21:31:15.244Z,37.90
2022-12-25T21:33:57.599Z,31.50
2022-12-25T21:36:34.080Z,59.50
2022-12-25T21:39:04.128Z,78.70
2022-12-25T21:41:32.713Z,40.60
2022-12-25T21:44:00.118Z,149.90
2022-12-25T21:46:27.840Z,81.40
2022-12-25T21:48:55.124Z,35.10
2022-12-25T21:51:40.326Z,41.30
2022-12-25T21:54:07.493Z,38.20
2022-12-25T21:56:43.039Z,35.50
2022-12-25T21:59:12.584Z,35.00
2022-12-25T22:01:39.410Z,32.40
2022-12-25T22:04:08.342Z,29.30
2022-12-25T22:06:50.778Z,50.70
2022-12-25T22:09:18.415Z,33.60
2022-12-25T22:12:00.530Z,43.40
2022-12-25T22:14:52.715Z,41.60
2022-12-25T22:17:40.944Z,39.10
2022-12-25T22:20:10.835Z,50.40
2022-12-25T22:22:37.777Z,40.40
2022-12-25T22:25:05.732Z,50.70
2022-12-25T22:27:35.812Z,38.20
2022-12-25T22:30:02.577Z,32.40
2022-12-25T22:32:29.417Z,36.20
2022-12-25T22:34:56.210Z,36.10
2022-12-25T22:37:27.184Z,35.50
2022-12-25T22:39:53.911Z,31.90
2022-12-25T22:42:20.989Z,37.00
2022-12-25T22:44:47.787Z,37.10
2022-12-25T22:47:15.368Z,118.40
2022-12-25T22:49:42.137Z,34.40
2022-12-25T22:52:09.901Z,48.70
2022-12-25T22:54:37.256Z,37.50
2022-12-25T22:57:04.601Z,35.90
2022-12-25T22:59:32.909Z,39.50
2022-12-25T23:02:00.751Z,32.30
2022-12-25T23:04:28.326Z,28.60
2022-12-25T23:06:55.229Z,35.80
2022-12-25T23:09:27.501Z,40.10
2022-12-25T23:11:55.880Z,42.50
2022-12-25T23:14:39.064Z,35.90
2022-12-25T23:17:28.631Z,53.20
2022-12-25T23:20:11.343Z,37.30
2022-12-25T23:22:53.726Z,36.70
2022-12-25T23:25:35.946Z,35.70
2022-12-25T23:28:02.640Z,35.30
2022-12-25T23:30:29.313Z,40.70
2022-12-25T23:32:56.006Z,38.10
2022-12-25T23:35:22.704Z,35.80
2022-12-25T23:37:53.051Z,49.40
2022-12-25T23:40:20.040Z,36.30
2022-12-25T23:42:46.904Z,142.50
2022-12-25T23:45:13.881Z,37.50
2022-12-25T23:47:40.628Z,28.90
2022-12-25T23:50:07.592Z,29.70
2022-12-25T23:52:34.290Z,30.70
2022-12-25T23:55:01.122Z,31.40
2022-12-25T23:57:28.894Z,30.50
2022-12-25T23:59:55.604Z,31.80
